sensor_id;sensor_type;location;lat;lon;timestamp;P1;durP1;ratioP1;P2;durP2;ratioP2
77944;SDS011;67142;47.404;-1.384;2023-03-17T00:02:12;10.40;;;3.90;;
77944;SDS011;67142;47.404;-1.384;2023-03-17T00:04:38;11.40;;;4.20;;
77944;SDS011;67142;47.404;-1.384;2023-03-17T00:07:04;12.35;;;4.35;;
77944;SDS011;67142;47.404;-1.384;2023-03-17T00:09:30;11.47;;;4.13;;
77944;SDS011;67142;47.404;-1.384;2023-03-17T00:11:56;10.55;;;4.40;;
77944;SDS011;67142;47.404;-1.384;2023-03-17T00:14:23;13.40;;;4.63;;
77944;SDS011;67142;47.404;-1.384;2023-03-17T00:16:49;11.70;;;4.65;;
77944;SDS011;67142;47.404;-1.384;2023-03-17T00:19:17;11.55;;;4.13;;
77944;SDS011;67142;47.404;-1.384;2023-03-17T00:21:44;11.93;;;4.70;;
77944;SDS011;67142;47.404;-1.384;2023-03-17T00:24:11;13.77;;;4.30;;
77944;SDS011;67142;47.404;-1.384;2023-03-17T00:26:37;10.80;;;4.43;;
77944;SDS011;67142;47.404;-1.384;2023-03-17T00:29:05;11.88;;;4.07;;
77944;SDS011;67142;47.404;-1.384;2023-03-17T00:31:32;12.60;;;4.38;;
77944;SDS011;67142;47.404;-1.384;2023-03-17T00:33:58;10.27;;;4.63;;
77944;SDS011;67142;47.404;-1.384;2023-03-17T00:36:25;11.77;;;5.13;;
77944;SDS011;67142;47.404;-1.384;2023-03-17T00:38:52;11.90;;;4.40;;
77944;SDS011;67142;47.404;-1.384;2023-03-17T00:41:18;10.98;;;4.43;;
77944;SDS011;67142;47.404;-1.384;2023-03-17T00:43:44;10.00;;;4.55;;
77944;SDS011;67142;47.404;-1.384;2023-03-17T00:46:14;12.80;;;4.97;;
77944;SDS011;67142;47.404;-1.384;2023-03-17T00:48:44;12.82;;;4.88;;
77944;SDS011;67142;47.404;-1.384;2023-03-17T00:51:11;14.05;;;4.88;;
77944;SDS011;67142;47.404;-1.384;2023-03-17T00:53:37;10.43;;;4.43;;
77944;SDS011;67142;47.404;-1.384;2023-03-17T00:56:04;10.18;;;4.30;;
77944;SDS011;67142;47.404;-1.384;2023-03-17T00:58:35;11.20;;;4.67;;
77944;SDS011;67142;47.404;-1.384;2023-03-17T01:01:01;12.13;;;4.43;;
77944;SDS011;67142;47.404;-1.384;2023-03-17T01:03:27;12.85;;;4.97;;
77944;SDS011;67142;47.404;-1.384;2023-03-17T01:05:53;8.52;;;3.97;;
77944;SDS011;67142;47.404;-1.384;2023-03-17T01:08:22;9.82;;;4.45;;
77944;SDS011;67142;47.404;-1.384;2023-03-17T01:10:49;12.10;;;4.47;;
77944;SDS011;67142;47.404;-1.384;2023-03-17T01:13:15;11.55;;;4.43;;
77944;SDS011;67142;47.404;-1.384;2023-03-17T01:15:43;9.30;;;4.60;;
77944;SDS011;67142;47.404;-1.384;2023-03-17T01:18:09;11.02;;;4.75;;
77944;SDS011;67142;47.404;-1.384;2023-03-17T01:20:37;8.93;;;3.72;;
77944;SDS011;67142;47.404;-1.384;2023-03-17T01:23:03;10.30;;;4.37;;
77944;SDS011;67142;47.404;-1.384;2023-03-17T01:25:29;9.20;;;4.00;;
77944;SDS011;67142;47.404;-1.384;2023-03-17T01:27:57;12.02;;;4.20;;
77944;SDS011;67142;47.404;-1.384;2023-03-17T01:32:52;9.73;;;4.50;;
77944;SDS011;67142;47.404;-1.384;2023-03-17T01:35:20;11.37;;;4.50;;
77944;SDS011;67142;47.404;-1.384;2023-03-17T01:37:47;9.18;;;4.22;;
77944;SDS011;67142;47.404;-1.384;2023-03-17T01:40:18;9.35;;;4.50;;
77944;SDS011;67142;47.404;-1.384;2023-03-17T01:43:31;10.13;;;4.60;;
77944;SDS011;67142;47.404;-1.384;2023-03-17T01:48:16;8.87;;;3.87;;
77944;SDS011;67142;47.404;-1.384;2023-03-17T01:50:43;10.77;;;4.10;;
77944;SDS011;67142;47.404;-1.384;2023-03-17T01:53:12;9.50;;;4.57;;
77944;SDS011;67142;47.404;-1.384;2023-03-17T01:55:39;10.23;;;4.43;;
77944;SDS011;67142;47.404;-1.384;2023-03-17T01:58:06;9.88;;;4.18;;
77944;SDS011;67142;47.404;-1.384;2023-03-17T02:00:33;8.17;;;3.63;;
77944;SDS011;67142;47.404;-1.384;2023-03-17T02:02:59;9.77;;;4.72;;
77944;SDS011;67142;47.404;-1.384;2023-03-17T02:05:26;9.88;;;4.18;;
77944;SDS011;67142;47.404;-1.384;2023-03-17T02:07:53;9.65;;;4.20;;
77944;SDS011;67142;47.404;-1.384;2023-03-17T02:10:20;8.02;;;4.28;;
77944;SDS011;67142;47.404;-1.384;2023-03-17T02:12:47;9.00;;;4.83;;
77944;SDS011;67142;47.404;-1.384;2023-03-17T02:15:16;11.13;;;5.07;;
77944;SDS011;67142;47.404;-1.384;2023-03-17T02:17:42;8.73;;;4.15;;
77944;SDS011;67142;47.404;-1.384;2023-03-17T02:22:47;10.63;;;4.68;;
77944;SDS011;67142;47.404;-1.384;2023-03-17T02:25:14;10.77;;;4.67;;
77944;SDS011;67142;47.404;-1.384;2023-03-17T02:27:42;11.52;;;4.72;;
77944;SDS011;67142;47.404;-1.384;2023-03-17T02:30:11;8.27;;;4.20;;
77944;SDS011;67142;47.404;-1.384;2023-03-17T02:32:37;9.98;;;4.63;;
77944;SDS011;67142;47.404;-1.384;2023-03-17T02:35:04;11.18;;;4.93;;
77944;SDS011;67142;47.404;-1.384;2023-03-17T02:37:31;11.37;;;4.53;;
77944;SDS011;67142;47.404;-1.384;2023-03-17T02:39:57;12.88;;;5.35;;
77944;SDS011;67142;47.404;-1.384;2023-03-17T02:42:25;14.00;;;4.72;;
77944;SDS011;67142;47.404;-1.384;2023-03-17T02:44:51;11.32;;;4.55;;
77944;SDS011;67142;47.404;-1.384;2023-03-17T02:47:17;12.07;;;5.13;;
77944;SDS011;67142;47.404;-1.384;2023-03-17T02:49:43;8.67;;;4.37;;
77944;SDS011;67142;47.404;-1.384;2023-03-17T02:52:09;9.32;;;3.72;;
77944;SDS011;67142;47.404;-1.384;2023-03-17T02:54:36;15.75;;;4.13;;
77944;SDS011;67142;47.404;-1.384;2023-03-17T02:57:02;9.85;;;3.17;;
77944;SDS011;67142;47.404;-1.384;2023-03-17T02:59:28;7.10;;;3.22;;
77944;SDS011;67142;47.404;-1.384;2023-03-17T03:01:54;9.47;;;3.13;;
77944;SDS011;67142;47.404;-1.384;2023-03-17T03:04:21;9.52;;;3.10;;
77944;SDS011;67142;47.404;-1.384;2023-03-17T03:06:48;8.05;;;3.67;;
77944;SDS011;67142;47.404;-1.384;2023-03-17T03:09:15;7.72;;;2.92;;
77944;SDS011;67142;47.404;-1.384;2023-03-17T03:11:42;6.25;;;2.70;;
77944;SDS011;67142;47.404;-1.384;2023-03-17T03:14:08;10.63;;;3.03;;
77944;SDS011;67142;47.404;-1.384;2023-03-17T03:16:35;9.50;;;2.88;;
77944;SDS011;67142;47.404;-1.384;2023-03-17T03:19:01;9.23;;;3.20;;
77944;SDS011;67142;47.404;-1.384;2023-03-17T03:21:27;6.80;;;3.25;;
77944;SDS011;67142;47.404;-1.384;2023-03-17T03:23:53;8.98;;;2.72;;
77944;SDS011;67142;47.404;-1.384;2023-03-17T03:26:19;7.17;;;2.10;;
77944;SDS011;67142;47.404;-1.384;2023-03-17T03:28:46;5.50;;;2.35;;
77944;SDS011;67142;47.404;-1.384;2023-03-17T03:31:12;7.25;;;1.95;;
77944;SDS011;67142;47.404;-1.384;2023-03-17T03:33:38;5.05;;;1.80;;
77944;SDS011;67142;47.404;-1.384;2023-03-17T03:36:05;9.45;;;2.22;;
77944;SDS011;67142;47.404;-1.384;2023-03-17T03:38:31;4.80;;;1.90;;
77944;SDS011;67142;47.404;-1.384;2023-03-17T03:40:57;9.38;;;2.08;;
77944;SDS011;67142;47.404;-1.384;2023-03-17T03:43:23;5.40;;;1.73;;
77944;SDS011;67142;47.404;-1.384;2023-03-17T03:45:49;8.57;;;1.98;;
77944;SDS011;67142;47.404;-1.384;2023-03-17T03:48:16;6.05;;;1.90;;
77944;SDS011;67142;47.404;-1.384;2023-03-17T03:50:42;8.53;;;2.00;;
77944;SDS011;67142;47.404;-1.384;2023-03-17T03:53:08;6.15;;;1.92;;
77944;SDS011;67142;47.404;-1.384;2023-03-17T03:55:34;6.72;;;2.13;;
77944;SDS011;67142;47.404;-1.384;2023-03-17T03:58:01;5.65;;;2.00;;
77944;SDS011;67142;47.404;-1.384;2023-03-17T04:00:27;6.60;;;1.55;;
77944;SDS011;67142;47.404;-1.384;2023-03-17T04:02:53;7.23;;;2.07;;
77944;SDS011;67142;47.404;-1.384;2023-03-17T04:05:19;8.05;;;2.13;;
77944;SDS011;67142;47.404;-1.384;2023-03-17T04:07:45;6.85;;;1.88;;
77944;SDS011;67142;47.404;-1.384;2023-03-17T04:10:12;6.30;;;1.90;;
77944;SDS011;67142;47.404;-1.384;2023-03-17T04:12:38;5.88;;;1.73;;
77944;SDS011;67142;47.404;-1.384;2023-03-17T04:15:05;6.70;;;1.80;;
77944;SDS011;67142;47.404;-1.384;2023-03-17T04:17:33;7.03;;;1.95;;
77944;SDS011;67142;47.404;-1.384;2023-03-17T04:19:59;9.02;;;1.90;;
77944;SDS011;67142;47.404;-1.384;2023-03-17T04:22:25;5.40;;;1.80;;
77944;SDS011;67142;47.404;-1.384;2023-03-17T04:24:51;8.10;;;2.28;;
77944;SDS011;67142;47.404;-1.384;2023-03-17T04:27:17;5.00;;;1.60;;
77944;SDS011;67142;47.404;-1.384;2023-03-17T04:29:44;5.65;;;1.85;;
77944;SDS011;67142;47.404;-1.384;2023-03-17T04:32:10;5.25;;;1.95;;
77944;SDS011;67142;47.404;-1.384;2023-03-17T04:34:37;5.22;;;1.70;;
77944;SDS011;67142;47.404;-1.384;2023-03-17T04:37:04;8.18;;;2.00;;
77944;SDS011;67142;47.404;-1.384;2023-03-17T04:39:30;7.80;;;1.80;;
77944;SDS011;67142;47.404;-1.384;2023-03-17T04:41:56;6.13;;;1.85;;
77944;SDS011;67142;47.404;-1.384;2023-03-17T04:44:22;7.93;;;2.00;;
77944;SDS011;67142;47.404;-1.384;2023-03-17T04:46:48;5.57;;;1.60;;
77944;SDS011;67142;47.404;-1.384;2023-03-17T04:49:14;5.43;;;1.83;;
77944;SDS011;67142;47.404;-1.384;2023-03-17T04:51:40;8.50;;;2.20;;
77944;SDS011;67142;47.404;-1.384;2023-03-17T04:54:06;6.60;;;1.77;;
77944;SDS011;67142;47.404;-1.384;2023-03-17T04:56:33;7.53;;;2.25;;
77944;SDS011;67142;47.404;-1.384;2023-03-17T04:59:00;6.55;;;2.20;;
77944;SDS011;67142;47.404;-1.384;2023-03-17T05:01:26;6.87;;;1.80;;
77944;SDS011;67142;47.404;-1.384;2023-03-17T05:03:52;9.40;;;2.40;;
77944;SDS011;67142;47.404;-1.384;2023-03-17T05:06:18;6.97;;;2.05;;
77944;SDS011;67142;47.404;-1.384;2023-03-17T05:08:44;8.10;;;2.30;;
77944;SDS011;67142;47.404;-1.384;2023-03-17T05:11:10;7.32;;;2.58;;
77944;SDS011;67142;47.404;-1.384;2023-03-17T05:13:37;7.72;;;2.60;;
77944;SDS011;67142;47.404;-1.384;2023-03-17T05:16:05;7.77;;;2.40;;
77944;SDS011;67142;47.404;-1.384;2023-03-17T05:18:31;6.85;;;2.35;;
77944;SDS011;67142;47.404;-1.384;2023-03-17T05:20:58;7.13;;;2.20;;
77944;SDS011;67142;47.404;-1.384;2023-03-17T05:23:24;6.80;;;2.40;;
77944;SDS011;67142;47.404;-1.384;2023-03-17T05:25:50;5.22;;;2.28;;
77944;SDS011;67142;47.404;-1.384;2023-03-17T05:28:17;9.57;;;2.73;;
77944;SDS011;67142;47.404;-1.384;2023-03-17T05:30:43;6.30;;;2.40;;
77944;SDS011;67142;47.404;-1.384;2023-03-17T05:33:10;6.30;;;2.60;;
77944;SDS011;67142;47.404;-1.384;2023-03-17T05:35:36;8.25;;;2.33;;
77944;SDS011;67142;47.404;-1.384;2023-03-17T05:38:03;9.00;;;2.88;;
77944;SDS011;67142;47.404;-1.384;2023-03-17T05:40:29;6.93;;;2.57;;
77944;SDS011;67142;47.404;-1.384;2023-03-17T05:42:55;5.75;;;2.30;;
77944;SDS011;67142;47.404;-1.384;2023-03-17T05:45:21;6.82;;;2.20;;
77944;SDS011;67142;47.404;-1.384;2023-03-17T05:47:47;8.57;;;2.50;;
77944;SDS011;67142;47.404;-1.384;2023-03-17T05:50:13;7.72;;;2.50;;
77944;SDS011;67142;47.404;-1.384;2023-03-17T05:52:39;6.90;;;2.53;;
77944;SDS011;67142;47.404;-1.384;2023-03-17T05:55:05;8.32;;;2.28;;
77944;SDS011;67142;47.404;-1.384;2023-03-17T05:57:32;8.98;;;2.38;;
77944;SDS011;67142;47.404;-1.384;2023-03-17T05:59:58;9.18;;;2.70;;
77944;SDS011;67142;47.404;-1.384;2023-03-17T06:02:24;9.93;;;2.10;;
77944;SDS011;67142;47.404;-1.384;2023-03-17T06:04:51;7.73;;;2.50;;
77944;SDS011;67142;47.404;-1.384;2023-03-17T06:07:17;7.07;;;2.20;;
77944;SDS011;67142;47.404;-1.384;2023-03-17T06:09:43;7.47;;;2.13;;
77944;SDS011;67142;47.404;-1.384;2023-03-17T06:12:09;10.48;;;2.00;;
77944;SDS011;67142;47.404;-1.384;2023-03-17T06:14:35;6.60;;;2.00;;
77944;SDS011;67142;47.404;-1.384;2023-03-17T06:17:01;7.87;;;1.80;;
77944;SDS011;67142;47.404;-1.384;2023-03-17T06:19:27;10.30;;;1.95;;
77944;SDS011;67142;47.404;-1.384;2023-03-17T06:21:53;8.38;;;2.10;;
77944;SDS011;67142;47.404;-1.384;2023-03-17T06:24:19;8.02;;;2.22;;
77944;SDS011;67142;47.404;-1.384;2023-03-17T06:26:45;6.28;;;2.00;;
77944;SDS011;67142;47.404;-1.384;2023-03-17T06:29:11;8.70;;;1.93;;
77944;SDS011;67142;47.404;-1.384;2023-03-17T06:31:38;8.45;;;1.92;;
77944;SDS011;67142;47.404;-1.384;2023-03-17T06:34:04;7.88;;;1.90;;
77944;SDS011;67142;47.404;-1.384;2023-03-17T06:36:31;5.57;;;1.70;;
77944;SDS011;67142;47.404;-1.384;2023-03-17T06:38:57;4.97;;;1.70;;
77944;SDS011;67142;47.404;-1.384;2023-03-17T06:41:24;7.10;;;2.00;;
77944;SDS011;67142;47.404;-1.384;2023-03-17T06:43:51;8.63;;;2.45;;
77944;SDS011;67142;47.404;-1.384;2023-03-17T06:46:17;10.55;;;2.10;;
77944;SDS011;67142;47.404;-1.384;2023-03-17T06:48:43;7.93;;;1.65;;
77944;SDS011;67142;47.404;-1.384;2023-03-17T06:51:09;12.25;;;2.33;;
77944;SDS011;67142;47.404;-1.384;2023-03-17T06:53:35;10.67;;;2.80;;
77944;SDS011;67142;47.404;-1.384;2023-03-17T06:56:01;9.63;;;2.13;;
77944;SDS011;67142;47.404;-1.384;2023-03-17T06:58:29;7.82;;;2.38;;
77944;SDS011;67142;47.404;-1.384;2023-03-17T07:00:55;7.70;;;2.10;;
77944;SDS011;67142;47.404;-1.384;2023-03-17T07:03:22;6.40;;;1.80;;
77944;SDS011;67142;47.404;-1.384;2023-03-17T07:05:49;7.30;;;1.87;;
77944;SDS011;67142;47.404;-1.384;2023-03-17T07:08:15;8.23;;;1.83;;
77944;SDS011;67142;47.404;-1.384;2023-03-17T07:10:42;9.00;;;2.03;;
77944;SDS011;67142;47.404;-1.384;2023-03-17T07:13:09;7.75;;;1.90;;
77944;SDS011;67142;47.404;-1.384;2023-03-17T07:15:36;6.40;;;1.83;;
77944;SDS011;67142;47.404;-1.384;2023-03-17T07:18:03;9.37;;;1.80;;
77944;SDS011;67142;47.404;-1.384;2023-03-17T07:20:30;7.20;;;2.20;;
77944;SDS011;67142;47.404;-1.384;2023-03-17T07:22:56;7.78;;;1.75;;
77944;SDS011;67142;47.404;-1.384;2023-03-17T07:25:23;7.18;;;2.58;;
77944;SDS011;67142;47.404;-1.384;2023-03-17T07:27:49;8.63;;;2.35;;
77944;SDS011;67142;47.404;-1.384;2023-03-17T07:30:16;7.73;;;2.17;;
77944;SDS011;67142;47.404;-1.384;2023-03-17T07:32:46;8.27;;;1.95;;
77944;SDS011;67142;47.404;-1.384;2023-03-17T07:35:12;7.95;;;1.70;;
77944;SDS011;67142;47.404;-1.384;2023-03-17T07:37:39;7.50;;;1.80;;
77944;SDS011;67142;47.404;-1.384;2023-03-17T07:40:05;10.45;;;1.80;;
77944;SDS011;67142;47.404;-1.384;2023-03-17T07:42:33;9.90;;;1.93;;
77944;SDS011;67142;47.404;-1.384;2023-03-17T07:44:59;9.55;;;1.73;;
77944;SDS011;67142;47.404;-1.384;2023-03-17T07:47:25;6.00;;;1.58;;
77944;SDS011;67142;47.404;-1.384;2023-03-17T07:49:51;9.60;;;1.70;;
77944;SDS011;67142;47.404;-1.384;2023-03-17T07:52:17;9.70;;;2.00;;
77944;SDS011;67142;47.404;-1.384;2023-03-17T07:54:43;7.80;;;2.13;;
77944;SDS011;67142;47.404;-1.384;2023-03-17T07:57:10;7.53;;;1.60;;
77944;SDS011;67142;47.404;-1.384;2023-03-17T07:59:36;8.18;;;1.65;;
77944;SDS011;67142;47.404;-1.384;2023-03-17T08:02:04;14.63;;;2.10;;
77944;SDS011;67142;47.404;-1.384;2023-03-17T08:04:30;9.30;;;2.33;;
77944;SDS011;67142;47.404;-1.384;2023-03-17T08:06:56;6.80;;;1.77;;
77944;SDS011;67142;47.404;-1.384;2023-03-17T08:09:22;7.18;;;1.75;;
77944;SDS011;67142;47.404;-1.384;2023-03-17T08:11:49;7.93;;;1.85;;
77944;SDS011;67142;47.404;-1.384;2023-03-17T08:14:15;10.23;;;2.13;;
77944;SDS011;67142;47.404;-1.384;2023-03-17T08:16:41;9.02;;;1.90;;
77944;SDS011;67142;47.404;-1.384;2023-03-17T08:19:07;9.70;;;2.10;;
77944;SDS011;67142;47.404;-1.384;2023-03-17T08:21:34;7.97;;;1.95;;
77944;SDS011;67142;47.404;-1.384;2023-03-17T08:24:00;8.95;;;2.35;;
77944;SDS011;67142;47.404;-1.384;2023-03-17T08:26:28;7.63;;;1.98;;
77944;SDS011;67142;47.404;-1.384;2023-03-17T08:28:55;8.55;;;1.98;;
77944;SDS011;67142;47.404;-1.384;2023-03-17T08:31:21;7.93;;;2.00;;
77944;SDS011;67142;47.404;-1.384;2023-03-17T08:33:48;9.75;;;2.28;;
77944;SDS011;67142;47.404;-1.384;2023-03-17T08:36:15;6.72;;;1.73;;
77944;SDS011;67142;47.404;-1.384;2023-03-17T08:38:42;9.35;;;1.55;;
77944;SDS011;67142;47.404;-1.384;2023-03-17T08:41:10;11.60;;;1.92;;
77944;SDS011;67142;47.404;-1.384;2023-03-17T08:43:36;5.63;;;1.90;;
77944;SDS011;67142;47.404;-1.384;2023-03-17T08:46:04;8.45;;;2.00;;
77944;SDS011;67142;47.404;-1.384;2023-03-17T08:48:31;7.95;;;2.10;;
77944;SDS011;67142;47.404;-1.384;2023-03-17T08:50:57;9.15;;;2.08;;
77944;SDS011;67142;47.404;-1.384;2023-03-17T08:53:23;7.68;;;2.33;;
77944;SDS011;67142;47.404;-1.384;2023-03-17T08:55:50;9.03;;;2.10;;
77944;SDS011;67142;47.404;-1.384;2023-03-17T08:58:16;8.27;;;1.80;;
77944;SDS011;67142;47.404;-1.384;2023-03-17T09:00:44;8.70;;;2.20;;
77944;SDS011;67142;47.404;-1.384;2023-03-17T09:03:11;10.45;;;2.17;;
77944;SDS011;67142;47.404;-1.384;2023-03-17T09:05:37;7.57;;;1.77;;
77944;SDS011;67142;47.404;-1.384;2023-03-17T09:08:03;13.67;;;2.23;;
77944;SDS011;67142;47.404;-1.384;2023-03-17T09:10:30;7.93;;;1.92;;
77944;SDS011;67142;47.404;-1.384;2023-03-17T09:12:56;9.32;;;2.00;;
77944;SDS011;67142;47.404;-1.384;2023-03-17T09:15:27;9.25;;;2.08;;
77944;SDS011;67142;47.404;-1.384;2023-03-17T09:17:53;8.88;;;2.42;;
77944;SDS011;67142;47.404;-1.384;2023-03-17T09:20:19;7.03;;;2.07;;
77944;SDS011;67142;47.404;-1.384;2023-03-17T09:22:46;12.18;;;2.10;;
77944;SDS011;67142;47.404;-1.384;2023-03-17T09:25:13;5.82;;;1.90;;
77944;SDS011;67142;47.404;-1.384;2023-03-17T09:27:39;7.97;;;2.10;;
77944;SDS011;67142;47.404;-1.384;2023-03-17T09:30:06;8.35;;;2.13;;
77944;SDS011;67142;47.404;-1.384;2023-03-17T09:32:34;8.33;;;2.50;;
77944;SDS011;67142;47.404;-1.384;2023-03-17T09:35:01;7.38;;;2.30;;
77944;SDS011;67142;47.404;-1.384;2023-03-17T09:37:27;9.80;;;2.63;;
77944;SDS011;67142;47.404;-1.384;2023-03-17T09:39:54;9.98;;;2.70;;
77944;SDS011;67142;47.404;-1.384;2023-03-17T09:48:21;10.43;;;2.20;;
77944;SDS011;67142;47.404;-1.384;2023-03-17T09:52:57;7.75;;;2.35;;
77944;SDS011;67142;47.404;-1.384;2023-03-17T09:55:26;11.32;;;2.85;;
77944;SDS011;67142;47.404;-1.384;2023-03-17T09:57:54;11.17;;;2.33;;
77944;SDS011;67142;47.404;-1.384;2023-03-17T10:00:21;10.88;;;2.40;;
77944;SDS011;67142;47.404;-1.384;2023-03-17T10:02:51;11.32;;;2.67;;
77944;SDS011;67142;47.404;-1.384;2023-03-17T10:05:18;9.10;;;2.60;;
77944;SDS011;67142;47.404;-1.384;2023-03-17T10:10:39;11.80;;;2.90;;
77944;SDS011;67142;47.404;-1.384;2023-03-17T10:15:34;11.07;;;2.50;;
77944;SDS011;67142;47.404;-1.384;2023-03-17T10:18:13;9.18;;;2.55;;
77944;SDS011;67142;47.404;-1.384;2023-03-17T10:20:43;10.27;;;2.33;;
77944;SDS011;67142;47.404;-1.384;2023-03-17T10:23:12;13.07;;;2.73;;
77944;SDS011;67142;47.404;-1.384;2023-03-17T10:25:41;13.13;;;2.78;;
77944;SDS011;67142;47.404;-1.384;2023-03-17T10:30:45;8.88;;;2.25;;
77944;SDS011;67142;47.404;-1.384;2023-03-17T10:33:11;12.77;;;2.28;;
77944;SDS011;67142;47.404;-1.384;2023-03-17T10:35:37;14.17;;;3.60;;
77944;SDS011;67142;47.404;-1.384;2023-03-17T10:38:12;10.10;;;3.00;;
77944;SDS011;67142;47.404;-1.384;2023-03-17T10:40:39;10.10;;;3.30;;
77944;SDS011;67142;47.404;-1.384;2023-03-17T10:43:06;9.95;;;2.30;;
77944;SDS011;67142;47.404;-1.384;2023-03-17T10:45:36;10.48;;;3.80;;
77944;SDS011;67142;47.404;-1.384;2023-03-17T10:48:06;10.67;;;3.30;;
77944;SDS011;67142;47.404;-1.384;2023-03-17T10:50:35;12.75;;;4.25;;
77944;SDS011;67142;47.404;-1.384;2023-03-17T10:55:33;10.57;;;4.00;;
77944;SDS011;67142;47.404;-1.384;2023-03-17T11:00:32;9.23;;;3.27;;
77944;SDS011;67142;47.404;-1.384;2023-03-17T11:03:01;8.63;;;3.15;;
77944;SDS011;67142;47.404;-1.384;2023-03-17T11:05:27;11.40;;;3.70;;
77944;SDS011;67142;47.404;-1.384;2023-03-17T11:08:07;9.15;;;3.13;;
77944;SDS011;67142;47.404;-1.384;2023-03-17T11:10:35;10.75;;;3.53;;
77944;SDS011;67142;47.404;-1.384;2023-03-17T11:13:02;7.17;;;3.07;;
77944;SDS011;67142;47.404;-1.384;2023-03-17T11:15:31;8.95;;;2.35;;
77944;SDS011;67142;47.404;-1.384;2023-03-17T11:17:59;8.40;;;3.60;;
77944;SDS011;67142;47.404;-1.384;2023-03-17T11:25:40;9.03;;;3.43;;
77944;SDS011;67142;47.404;-1.384;2023-03-17T11:28:15;8.85;;;3.95;;
77944;SDS011;67142;47.404;-1.384;2023-03-17T11:30:46;8.75;;;4.00;;
77944;SDS011;67142;47.404;-1.384;2023-03-17T11:34:01;9.50;;;3.78;;
77944;SDS011;67142;47.404;-1.384;2023-03-17T11:38:28;9.73;;;3.83;;
77944;SDS011;67142;47.404;-1.384;2023-03-17T11:51:27;6.60;;;1.50;;
77944;SDS011;67142;47.404;-1.384;2023-03-17T11:56:34;7.78;;;1.33;;
77944;SDS011;67142;47.404;-1.384;2023-03-17T11:59:02;5.20;;;1.45;;
77944;SDS011;67142;47.404;-1.384;2023-03-17T12:01:37;5.68;;;1.80;;
77944;SDS011;67142;47.404;-1.384;2023-03-17T12:06:48;7.07;;;1.60;;
77944;SDS011;67142;47.404;-1.384;2023-03-17T12:09:31;7.45;;;3.75;;
77944;SDS011;67142;47.404;-1.384;2023-03-17T12:11:57;5.68;;;2.28;;
77944;SDS011;67142;47.404;-1.384;2023-03-17T12:14:28;8.98;;;2.90;;
77944;SDS011;67142;47.404;-1.384;2023-03-17T12:19:25;6.05;;;1.50;;
77944;SDS011;67142;47.404;-1.384;2023-03-17T12:21:54;5.55;;;1.40;;
77944;SDS011;67142;47.404;-1.384;2023-03-17T12:24:32;6.38;;;1.50;;
77944;SDS011;67142;47.404;-1.384;2023-03-17T12:27:01;7.30;;;1.52;;
77944;SDS011;67142;47.404;-1.384;2023-03-17T12:32:05;7.78;;;1.33;;
77944;SDS011;67142;47.404;-1.384;2023-03-17T12:34:42;6.75;;;1.10;;
77944;SDS011;67142;47.404;-1.384;2023-03-17T12:37:10;5.70;;;1.27;;
77944;SDS011;67142;47.404;-1.384;2023-03-17T12:39:36;4.72;;;0.90;;
77944;SDS011;67142;47.404;-1.384;2023-03-17T12:55:02;4.90;;;1.03;;
77944;SDS011;67142;47.404;-1.384;2023-03-17T12:57:29;7.05;;;0.93;;
77944;SDS011;67142;47.404;-1.384;2023-03-17T13:00:05;7.93;;;0.90;;
77944;SDS011;67142;47.404;-1.384;2023-03-17T13:02:36;9.77;;;1.25;;
77944;SDS011;67142;47.404;-1.384;2023-03-17T13:05:05;6.57;;;0.98;;
77944;SDS011;67142;47.404;-1.384;2023-03-17T13:07:32;6.93;;;1.00;;
77944;SDS011;67142;47.404;-1.384;2023-03-17T13:15:20;6.90;;;0.90;;
77944;SDS011;67142;47.404;-1.384;2023-03-17T13:17:47;8.73;;;1.00;;
77944;SDS011;67142;47.404;-1.384;2023-03-17T13:20:15;5.73;;;0.90;;
77944;SDS011;67142;47.404;-1.384;2023-03-17T13:25:33;7.53;;;1.48;;
77944;SDS011;67142;47.404;-1.384;2023-03-17T13:35:40;8.88;;;1.30;;
77944;SDS011;67142;47.404;-1.384;2023-03-17T13:46:17;7.13;;;1.20;;
77944;SDS011;67142;47.404;-1.384;2023-03-17T13:48:43;5.90;;;1.00;;
77944;SDS011;67142;47.404;-1.384;2023-03-17T13:53:40;8.38;;;1.48;;
77944;SDS011;67142;47.404;-1.384;2023-03-17T13:58:34;9.10;;;1.30;;
77944;SDS011;67142;47.404;-1.384;2023-03-17T14:01:13;9.57;;;1.33;;
77944;SDS011;67142;47.404;-1.384;2023-03-17T14:03:47;14.75;;;1.55;;
77944;SDS011;67142;47.404;-1.384;2023-03-17T14:06:14;10.20;;;1.35;;
77944;SDS011;67142;47.404;-1.384;2023-03-17T14:08:45;7.70;;;1.10;;
77944;SDS011;67142;47.404;-1.384;2023-03-17T14:11:54;10.47;;;1.47;;
77944;SDS011;67142;47.404;-1.384;2023-03-17T14:16:57;7.65;;;0.98;;
77944;SDS011;67142;47.404;-1.384;2023-03-17T14:19:24;8.43;;;1.92;;
77944;SDS011;67142;47.404;-1.384;2023-03-17T14:21:51;9.93;;;2.20;;
77944;SDS011;67142;47.404;-1.384;2023-03-17T14:24:24;10.87;;;2.73;;
77944;SDS011;67142;47.404;-1.384;2023-03-17T14:26:53;29.13;;;5.50;;
77944;SDS011;67142;47.404;-1.384;2023-03-17T14:29:20;34.50;;;7.20;;
77944;SDS011;67142;47.404;-1.384;2023-03-17T14:31:50;24.83;;;6.05;;
77944;SDS011;67142;47.404;-1.384;2023-03-17T14:34:19;53.17;;;7.57;;
77944;SDS011;67142;47.404;-1.384;2023-03-17T14:36:45;20.80;;;5.83;;
77944;SDS011;67142;47.404;-1.384;2023-03-17T14:39:19;15.65;;;5.50;;
77944;SDS011;67142;47.404;-1.384;2023-03-17T14:41:46;17.30;;;5.32;;
77944;SDS011;67142;47.404;-1.384;2023-03-17T14:44:21;13.07;;;5.10;;
77944;SDS011;67142;47.404;-1.384;2023-03-17T14:46:47;15.30;;;5.20;;
77944;SDS011;67142;47.404;-1.384;2023-03-17T14:51:39;17.38;;;5.70;;
77944;SDS011;67142;47.404;-1.384;2023-03-17T14:54:25;8.75;;;2.20;;
77944;SDS011;67142;47.404;-1.384;2023-03-17T14:56:53;7.10;;;2.20;;
77944;SDS011;67142;47.404;-1.384;2023-03-17T14:59:35;7.97;;;2.05;;
77944;SDS011;67142;47.404;-1.384;2023-03-17T15:04:55;13.32;;;2.80;;
77944;SDS011;67142;47.404;-1.384;2023-03-17T15:10:01;6.90;;;1.80;;
77944;SDS011;67142;47.404;-1.384;2023-03-17T15:12:27;5.93;;;1.63;;
77944;SDS011;67142;47.404;-1.384;2023-03-17T15:14:56;6.73;;;2.17;;
77944;SDS011;67142;47.404;-1.384;2023-03-17T15:17:32;6.88;;;2.20;;
77944;SDS011;67142;47.404;-1.384;2023-03-17T15:20:00;6.07;;;2.08;;
77944;SDS011;67142;47.404;-1.384;2023-03-17T15:22:38;7.13;;;1.90;;
77944;SDS011;67142;47.404;-1.384;2023-03-17T15:27:50;9.40;;;2.20;;
77944;SDS011;67142;47.404;-1.384;2023-03-17T15:30:17;7.93;;;2.35;;
77944;SDS011;67142;47.404;-1.384;2023-03-17T15:32:43;6.65;;;2.05;;
77944;SDS011;67142;47.404;-1.384;2023-03-17T15:35:10;10.82;;;2.53;;
77944;SDS011;67142;47.404;-1.384;2023-03-17T15:37:36;11.82;;;2.85;;
77944;SDS011;67142;47.404;-1.384;2023-03-17T15:40:03;11.70;;;2.20;;
77944;SDS011;67142;47.404;-1.384;2023-03-17T15:42:30;8.85;;;2.40;;
77944;SDS011;67142;47.404;-1.384;2023-03-17T15:44:57;6.43;;;1.50;;
77944;SDS011;67142;47.404;-1.384;2023-03-17T15:47:25;7.15;;;1.90;;
77944;SDS011;67142;47.404;-1.384;2023-03-17T15:49:53;6.93;;;1.83;;
77944;SDS011;67142;47.404;-1.384;2023-03-17T15:52:22;6.83;;;1.70;;
77944;SDS011;67142;47.404;-1.384;2023-03-17T15:54:49;5.53;;;1.90;;
77944;SDS011;67142;47.404;-1.384;2023-03-17T15:57:15;6.28;;;1.95;;
77944;SDS011;67142;47.404;-1.384;2023-03-17T15:59:41;10.05;;;2.10;;
77944;SDS011;67142;47.404;-1.384;2023-03-17T16:02:53;6.55;;;1.70;;
77944;SDS011;67142;47.404;-1.384;2023-03-17T16:04:54;7.80;;;2.08;;
77944;SDS011;67142;47.404;-1.384;2023-03-17T16:07:21;5.40;;;1.65;;
77944;SDS011;67142;47.404;-1.384;2023-03-17T16:09:47;5.78;;;1.67;;
77944;SDS011;67142;47.404;-1.384;2023-03-17T16:12:14;6.85;;;1.73;;
77944;SDS011;67142;47.404;-1.384;2023-03-17T16:14:40;7.22;;;1.60;;
77944;SDS011;67142;47.404;-1.384;2023-03-17T16:17:22;8.20;;;2.13;;
77944;SDS011;67142;47.404;-1.384;2023-03-17T16:19:50;7.30;;;1.70;;
77944;SDS011;67142;47.404;-1.384;2023-03-17T16:22:34;7.10;;;2.45;;
77944;SDS011;67142;47.404;-1.384;2023-03-17T16:25:01;8.25;;;1.80;;
77944;SDS011;67142;47.404;-1.384;2023-03-17T16:27:27;6.50;;;1.85;;